Sunday, October 22, 2017, 8:46 PM EDT
Back to Local

KHLG, Wheeling Ohio County Airport

Location: Wheeling, WV, United States Lat: 40.167
Local Time: 8:46 PM EDT ( 0:46 GMT) Lon: -80.65
Time Zone: US/Eastern Elev: 1194 ft

Show me the last for .
Show Decoded

2017-10-22 19:53 METAR KHLG 222353Z 13004KT 10SM CLR 20/07 A3018 RMK AO2 SLP218 T02000072 10244
                 20194 53000 =
2017-10-22 18:53 METAR KHLG 222253Z 15004KT 10SM CLR 21/08 A3018 RMK AO2 SLP218 T02110078 =
2017-10-22 17:53 METAR KHLG 222153Z 13004KT 10SM CLR 22/08 A3017 RMK AO2 SLP215 T02220078 =
2017-10-22 16:53 METAR KHLG 222053Z 16006KT 10SM CLR 23/08 A3018 RMK AO2 SLP216 T02330078 56021 =
2017-10-22 15:53 METAR KHLG 221953Z 19005KT 10SM CLR 24/08 A3020 RMK AO2 SLP223 T02390083 =
2017-10-22 14:53 METAR KHLG 221853Z VRB05KT 10SM CLR 24/09 A3021 RMK AO2 SLP229 T02440089 =
2017-10-22 13:53 METAR KHLG 221753Z 24005KT 10SM CLR 23/10 A3024 RMK AO2 SLP239 T02330100 10233
                 20133 58018 =
2017-10-22 12:53 METAR KHLG 221653Z 22007KT 10SM CLR 22/09 A3027 RMK AO2 SLP248 T02170089 =
2017-10-22 11:53 METAR KHLG 221553Z 20010G20KT 10SM CLR 21/10 A3029 RMK AO2 SLP255 T02110100 =
2017-10-22 10:53 METAR KHLG 221453Z 18009KT 10SM CLR 19/11 A3029 RMK AO2 SLP258 T01940111 51003 =
2017-10-22 09:53 METAR KHLG 221353Z 16007KT 10SM CLR 18/11 A3029 RMK AO2 SLP256 T01780111 =
2017-10-22 08:53 METAR KHLG 221253Z AUTO 16003KT 10SM CLR 15/11 A3030 RMK AO2 SLP260 T01500106 =
2017-10-22 07:53 METAR KHLG 221153Z AUTO 16007KT 10SM CLR 14/09 A3029 RMK AO2 SLP256 T01390094
                 10150 20122 50003 =
2017-10-22 06:53 METAR KHLG 221053Z AUTO 13004KT 10SM CLR 14/09 A3029 RMK AO2 SLP256 T01390094 =
2017-10-22 05:53 METAR KHLG 220953Z AUTO 14004KT 10SM CLR 14/09 A3028 RMK AO2 SLP253 T01440089 =
2017-10-22 04:53 METAR KHLG 220853Z AUTO 16004KT 10SM CLR 14/09 A3028 RMK AO2 SLP251 T01440089
                 53009 =
2017-10-22 03:53 METAR KHLG 220753Z AUTO 15006KT 10SM CLR 15/09 A3026 RMK AO2 SLP244 T01500089 =
2017-10-22 02:53 METAR KHLG 220653Z AUTO 13005KT 10SM CLR 14/09 A3025 RMK AO2 SLP241 T01440089 =
2017-10-22 01:53 METAR KHLG 220553Z AUTO 12006KT 10SM CLR 13/09 A3025 RMK AO2 SLP242 T01330089
                 10189 20111 58009 =
2017-10-22 00:53 METAR KHLG 220453Z AUTO 17006KT 10SM CLR 16/09 A3026 RMK AO2 SLP243 T01560094
                 402280072 =
2017-10-21 23:53 METAR KHLG 220353Z AUTO 17005KT 10SM CLR 16/09 A3027 RMK AO2 SLP249 T01610094 =
2017-10-21 22:53 METAR KHLG 220253Z AUTO 11006KT 10SM CLR 14/09 A3028 RMK AO2 SLP253 T01440094
                 50001 =
2017-10-21 21:53 METAR KHLG 220153Z AUTO 14004KT 10SM CLR 17/09 A3028 RMK AO2 SLP254 T01720094 =
2017-10-21 20:53 METAR KHLG 220053Z AUTO 18004KT 10SM CLR 18/09 A3027 RMK AO2 SLP254 T01830089 =

Support USWX by starting your Amazon purchase here.